createdAt,value
2019-01-27T00:01:36.910Z,32.03
2019-01-27T00:04:08.166Z,33.13
2019-01-27T00:06:38.516Z,31.90
2019-01-27T00:09:12.068Z,32.77
2019-01-27T00:11:43.094Z,32.50
2019-01-27T00:14:14.497Z,32.00
2019-01-27T00:16:45.743Z,32.30
2019-01-27T00:19:17.143Z,32.97
2019-01-27T00:21:48.319Z,32.60
2019-01-27T00:24:19.435Z,33.27
2019-01-27T00:26:50.514Z,32.20
2019-01-27T00:29:21.410Z,32.07
2019-01-27T00:31:52.550Z,32.40
2019-01-27T00:34:24.350Z,32.40
2019-01-27T00:36:55.345Z,31.50
2019-01-27T00:39:26.322Z,32.10
2019-01-27T00:41:57.786Z,32.33
2019-01-27T00:44:28.886Z,33.03
2019-01-27T00:46:59.787Z,33.43
2019-01-27T00:49:30.456Z,32.60
2019-01-27T00:52:01.397Z,32.87
2019-01-27T00:54:33.156Z,31.83
2019-01-27T00:57:05.197Z,33.00
2019-01-27T00:59:35.866Z,32.67
2019-01-27T01:02:07.505Z,32.47
2019-01-27T01:04:39.777Z,32.40
2019-01-27T01:07:11.339Z,31.57
2019-01-27T01:09:42.851Z,31.87
2019-01-27T01:12:14.534Z,32.23
2019-01-27T01:14:45.986Z,33.53
2019-01-27T01:17:16.829Z,31.83
2019-01-27T01:19:48.274Z,32.80
2019-01-27T01:22:19.714Z,32.50
2019-01-27T01:24:51.374Z,32.67
2019-01-27T01:27:22.322Z,33.23
2019-01-27T01:29:53.411Z,33.47
2019-01-27T01:32:24.605Z,32.30
2019-01-27T01:34:55.753Z,31.60
2019-01-27T01:37:26.928Z,33.07
2019-01-27T01:39:57.983Z,31.53
2019-01-27T01:42:29.483Z,33.23
2019-01-27T01:45:00.624Z,32.30
2019-01-27T01:47:32.078Z,32.10
2019-01-27T01:50:02.916Z,32.13
2019-01-27T01:52:34.542Z,31.70
2019-01-27T01:55:06.770Z,32.57
2019-01-27T01:57:37.581Z,32.03
2019-01-27T02:00:11.355Z,32.60
2019-01-27T02:02:42.327Z,31.63
2019-01-27T02:05:13.777Z,32.17
2019-01-27T02:07:44.916Z,32.23
2019-01-27T02:10:17.827Z,32.20
2019-01-27T02:12:48.933Z,33.30
2019-01-27T02:15:59.750Z,32.73
2019-01-27T02:18:31.268Z,32.37
2019-01-27T02:21:02.727Z,31.87
2019-01-27T02:23:34.157Z,31.87
2019-01-27T02:26:05.874Z,32.67
2019-01-27T02:28:37.162Z,31.93
2019-01-27T02:31:07.854Z,32.30
2019-01-27T02:33:38.774Z,32.30
2019-01-27T02:36:09.049Z,33.50
2019-01-27T02:38:40.122Z,32.30
2019-01-27T02:41:10.454Z,32.43
2019-01-27T02:43:41.176Z,33.07
2019-01-27T02:46:11.597Z,34.23
2019-01-27T02:48:42.303Z,33.27
2019-01-27T02:51:13.814Z,33.67
2019-01-27T02:53:44.789Z,33.67
2019-01-27T02:56:15.190Z,33.70
2019-01-27T02:58:46.894Z,32.43
2019-01-27T03:01:17.316Z,32.40
2019-01-27T03:03:48.497Z,33.13
2019-01-27T03:06:32.663Z,34.10
2019-01-27T03:09:10.933Z,32.97
2019-01-27T03:11:53.506Z,33.20
2019-01-27T03:14:25.101Z,33.77
2019-01-27T03:16:56.530Z,33.80
2019-01-27T03:19:28.008Z,33.63
2019-01-27T03:21:59.155Z,33.73
2019-01-27T03:24:30.307Z,33.80
2019-01-27T03:27:01.131Z,34.07
2019-01-27T03:29:32.270Z,33.23
2019-01-27T03:32:03.493Z,33.07
2019-01-27T03:34:34.563Z,33.50
2019-01-27T03:37:06.332Z,33.93
2019-01-27T03:39:37.457Z,34.03
2019-01-27T03:42:08.471Z,33.20
2019-01-27T03:44:39.475Z,34.13
2019-01-27T03:47:10.086Z,34.17
2019-01-27T03:49:40.812Z,33.63
2019-01-27T03:52:11.162Z,33.87
2019-01-27T03:54:42.174Z,33.77
2019-01-27T03:57:12.582Z,33.67
2019-01-27T03:59:43.209Z,33.47
2019-01-27T04:02:13.554Z,34.07
2019-01-27T04:04:44.333Z,33.07
2019-01-27T04:07:14.723Z,34.23
2019-01-27T04:09:45.686Z,32.87
2019-01-27T04:12:16.802Z,33.53
2019-01-27T04:14:47.954Z,34.03
2019-01-27T04:17:19.389Z,33.10
2019-01-27T04:19:50.534Z,33.27
2019-01-27T04:22:21.680Z,34.00
2019-01-27T04:24:53.085Z,34.10
2019-01-27T04:27:24.290Z,33.33
2019-01-27T04:29:55.451Z,33.03
2019-01-27T04:32:26.566Z,33.43
2019-01-27T04:34:57.701Z,32.90
2019-01-27T04:37:28.847Z,33.93
2019-01-27T04:40:00.247Z,32.53
2019-01-27T04:42:31.443Z,33.33
2019-01-27T04:45:02.411Z,32.93
2019-01-27T04:47:33.417Z,32.80
2019-01-27T04:50:04.888Z,31.67
2019-01-27T04:52:35.712Z,32.60
2019-01-27T04:55:08.404Z,34.33
2019-01-27T04:57:39.221Z,32.57
2019-01-27T05:00:13.703Z,32.83
2019-01-27T05:02:52.150Z,33.03
2019-01-27T05:05:25.103Z,32.63
2019-01-27T05:07:55.970Z,32.33
2019-01-27T05:10:26.924Z,33.63
2019-01-27T05:12:57.878Z,32.33
2019-01-27T05:15:29.624Z,33.27
2019-01-27T05:18:00.766Z,33.77
2019-01-27T05:20:31.629Z,33.03
2019-01-27T05:23:02.749Z,31.57
2019-01-27T05:25:34.190Z,32.50
2019-01-27T05:28:05.226Z,32.23
2019-01-27T05:30:36.166Z,32.63
2019-01-27T05:33:07.572Z,32.97
2019-01-27T05:35:37.969Z,31.17
2019-01-27T05:38:08.665Z,32.43
2019-01-27T05:40:39.027Z,32.10
2019-01-27T05:43:09.748Z,32.83
2019-01-27T05:45:40.081Z,32.60
2019-01-27T05:48:10.838Z,33.20
2019-01-27T05:50:41.218Z,32.23
2019-01-27T05:53:12.171Z,32.80
2019-01-27T05:55:42.526Z,32.80
2019-01-27T05:58:13.242Z,32.67
2019-01-27T06:00:45.550Z,32.23
2019-01-27T06:03:16.190Z,32.40
2019-01-27T06:05:46.460Z,32.17
2019-01-27T06:08:17.507Z,32.17
2019-01-27T06:10:48.004Z,33.37
2019-01-27T06:13:20.412Z,32.70
2019-01-27T06:15:51.069Z,33.90
2019-01-27T06:18:22.087Z,32.07
2019-01-27T06:20:52.788Z,32.50
2019-01-27T06:23:23.746Z,31.63
2019-01-27T06:25:54.386Z,32.43
2019-01-27T06:28:25.119Z,31.73
2019-01-27T06:30:55.447Z,31.73
2019-01-27T06:33:34.981Z,32.93
2019-01-27T06:36:05.483Z,32.57
2019-01-27T06:38:36.450Z,32.07
2019-01-27T06:41:06.774Z,33.17
2019-01-27T06:43:37.503Z,32.10
2019-01-27T06:46:07.926Z,31.77
2019-01-27T06:48:38.555Z,31.33
2019-01-27T06:51:08.981Z,31.80
2019-01-27T06:53:39.678Z,31.73
2019-01-27T06:56:10.263Z,32.40
2019-01-27T06:59:18.360Z,32.90
2019-01-27T07:01:57.642Z,33.03
2019-01-27T07:04:38.429Z,32.83
2019-01-27T07:07:27.841Z,31.33
2019-01-27T07:10:32.875Z,32.27
2019-01-27T07:13:26.139Z,31.87
2019-01-27T07:16:13.668Z,32.30
2019-01-27T07:19:01.908Z,32.13
2019-01-27T07:21:51.779Z,31.27
2019-01-27T07:24:41.642Z,33.47
2019-01-27T07:27:34.043Z,33.73
2019-01-27T07:30:39.262Z,33.27
2019-01-27T07:33:28.599Z,32.07
2019-01-27T07:36:11.957Z,33.23
2019-01-27T07:39:04.057Z,33.07
2019-01-27T07:41:54.131Z,34.70
2019-01-27T07:44:43.525Z,33.23
2019-01-27T07:47:51.564Z,32.67
2019-01-27T07:50:39.586Z,34.27
2019-01-27T07:53:29.174Z,34.10
2019-01-27T07:56:18.831Z,34.50
2019-01-27T07:59:14.513Z,32.50
2019-01-27T08:01:54.295Z,34.43
2019-01-27T08:04:46.558Z,34.07
2019-01-27T08:07:40.689Z,33.37
2019-01-27T08:10:33.385Z,32.90
2019-01-27T08:13:10.661Z,33.47
2019-01-27T08:16:00.290Z,34.13
2019-01-27T08:18:58.666Z,34.97
2019-01-27T08:21:54.405Z,34.67
2019-01-27T08:24:43.190Z,34.50
2019-01-27T08:27:32.791Z,34.83
2019-01-27T08:30:22.930Z,35.27
2019-01-27T08:33:09.802Z,34.47
2019-01-27T08:35:59.141Z,34.90
2019-01-27T08:38:50.886Z,35.67
2019-01-27T08:41:48.818Z,34.53
2019-01-27T08:44:42.962Z,35.97
2019-01-27T08:47:13.337Z,35.00
2019-01-27T08:49:44.613Z,34.83
2019-01-27T08:52:14.826Z,34.73
2019-01-27T08:54:45.977Z,35.30
2019-01-27T08:57:16.458Z,36.07
2019-01-27T08:59:47.556Z,35.90
2019-01-27T09:02:37.203Z,35.20
2019-01-27T09:05:18.614Z,35.30
2019-01-27T09:08:20.304Z,36.97
2019-01-27T09:11:04.830Z,35.33
2019-01-27T09:13:42.893Z,35.90
2019-01-27T09:16:37.032Z,35.77
2019-01-27T09:19:44.719Z,36.30
2019-01-27T09:22:34.297Z,35.03
2019-01-27T09:25:39.039Z,36.33
2019-01-27T09:28:26.684Z,35.80
2019-01-27T09:31:14.669Z,36.70
2019-01-27T09:34:13.266Z,35.97
2019-01-27T09:37:06.151Z,35.73
2019-01-27T09:40:14.250Z,35.80
2019-01-27T09:42:59.894Z,36.63
2019-01-27T09:45:44.185Z,36.50
2019-01-27T09:48:32.706Z,35.87
2019-01-27T09:51:32.655Z,35.53
2019-01-27T09:54:12.242Z,36.53
2019-01-27T09:57:00.841Z,37.00
2019-01-27T09:59:43.403Z,35.13
2019-01-27T10:02:42.143Z,34.93
2019-01-27T10:05:21.242Z,35.83
2019-01-27T10:08:09.722Z,38.13
2019-01-27T10:10:54.837Z,37.50
2019-01-27T10:13:59.571Z,36.90
2019-01-27T10:16:37.926Z,37.00
2019-01-27T10:19:19.242Z,36.70
2019-01-27T10:21:59.282Z,37.87
2019-01-27T10:24:55.554Z,37.27
2019-01-27T10:27:48.258Z,38.03
2019-01-27T10:30:54.718Z,37.20
2019-01-27T10:33:42.847Z,35.43
2019-01-27T10:36:25.958Z,37.03
2019-01-27T10:39:09.942Z,37.13
2019-01-27T10:41:48.528Z,36.67
2019-01-27T10:44:29.855Z,36.70
2019-01-27T10:47:15.658Z,36.33
2019-01-27T10:50:08.381Z,35.93
2019-01-27T10:53:07.356Z,37.13
2019-01-27T10:56:02.956Z,36.83
2019-01-27T10:58:55.289Z,36.73
2019-01-27T11:01:52.823Z,35.73
2019-01-27T11:04:42.085Z,36.10
2019-01-27T11:07:29.429Z,36.07
2019-01-27T11:10:28.130Z,36.00
2019-01-27T11:13:23.591Z,35.93
2019-01-27T11:16:02.493Z,36.10
2019-01-27T11:18:51.693Z,36.43
2019-01-27T11:21:51.089Z,36.07
2019-01-27T11:24:28.488Z,36.43
2019-01-27T11:27:13.337Z,35.53
2019-01-27T11:29:56.271Z,35.80
2019-01-27T11:33:03.469Z,36.07
2019-01-27T11:35:53.351Z,36.17
2019-01-27T11:38:54.616Z,36.07
2019-01-27T11:41:40.391Z,35.03
2019-01-27T11:44:24.898Z,33.97
2019-01-27T11:47:21.483Z,35.60
2019-01-27T11:49:58.383Z,35.73
2019-01-27T11:52:32.971Z,35.33
2019-01-27T11:55:03.470Z,36.03
2019-01-27T11:57:34.769Z,35.33
2019-01-27T12:00:07.117Z,34.87
2019-01-27T12:02:37.959Z,33.63
2019-01-27T12:05:09.959Z,34.07
2019-01-27T12:07:41.166Z,33.90
2019-01-27T12:10:14.628Z,34.40
2019-01-27T12:12:45.565Z,34.70
2019-01-27T12:15:18.502Z,35.17
2019-01-27T12:17:49.432Z,34.17
2019-01-27T12:20:20.573Z,33.63
2019-01-27T12:22:51.951Z,34.70
2019-01-27T12:25:22.809Z,34.17
2019-01-27T12:27:54.013Z,33.53
2019-01-27T12:30:25.787Z,34.00
2019-01-27T12:32:56.935Z,33.60
2019-01-27T12:35:28.374Z,33.10
2019-01-27T12:37:59.535Z,33.73
2019-01-27T12:40:30.638Z,33.80
2019-01-27T12:43:01.453Z,32.33
2019-01-27T12:45:32.926Z,32.60
2019-01-27T12:48:04.392Z,32.33
2019-01-27T12:50:35.870Z,32.40
2019-01-27T12:53:06.990Z,32.47
2019-01-27T12:55:38.546Z,33.17
2019-01-27T12:58:09.599Z,33.30
2019-01-27T13:00:44.296Z,31.73
2019-01-27T13:03:15.560Z,31.57
2019-01-27T13:05:47.620Z,31.90
2019-01-27T13:08:19.679Z,31.03
2019-01-27T13:10:51.122Z,32.03
2019-01-27T13:13:22.097Z,32.13
2019-01-27T13:15:52.879Z,30.97
2019-01-27T13:18:23.634Z,31.73
2019-01-27T13:20:54.788Z,30.53
2019-01-27T13:23:25.627Z,30.93
2019-01-27T13:25:57.077Z,31.27
2019-01-27T13:28:28.268Z,30.00
2019-01-27T13:30:59.745Z,30.03
2019-01-27T13:33:31.503Z,30.60
2019-01-27T13:36:02.879Z,30.90
2019-01-27T13:38:34.038Z,30.33
2019-01-27T13:41:05.170Z,29.97
2019-01-27T13:43:36.330Z,30.03
2019-01-27T13:46:08.063Z,29.10
2019-01-27T13:48:39.214Z,29.17
2019-01-27T13:51:10.383Z,29.20
2019-01-27T13:53:42.110Z,28.50
2019-01-27T13:56:13.248Z,28.93
2019-01-27T13:58:55.140Z,28.40
2019-01-27T14:01:26.298Z,28.03
2019-01-27T14:03:57.530Z,28.53
2019-01-27T14:06:28.994Z,28.37
2019-01-27T14:09:00.440Z,27.83
2019-01-27T14:11:33.124Z,29.10
2019-01-27T14:14:04.271Z,28.17
2019-01-27T14:16:35.408Z,27.30
2019-01-27T14:19:07.844Z,27.50
2019-01-27T14:21:38.876Z,27.03
2019-01-27T14:24:09.714Z,27.10
2019-01-27T14:26:41.206Z,27.03
2019-01-27T14:29:12.405Z,26.67
2019-01-27T14:31:44.125Z,27.07
2019-01-27T14:34:15.553Z,26.47
2019-01-27T14:36:46.622Z,26.07
2019-01-27T14:39:18.183Z,26.13
2019-01-27T14:41:49.799Z,26.43
2019-01-27T14:44:21.644Z,25.73
2019-01-27T14:46:52.461Z,26.60
2019-01-27T14:49:23.678Z,25.07
2019-01-27T14:51:55.401Z,25.60
2019-01-27T14:54:26.140Z,24.80
2019-01-27T14:56:57.070Z,25.17
2019-01-27T14:59:28.112Z,24.77
2019-01-27T15:01:59.001Z,25.50
2019-01-27T15:04:30.314Z,24.67
2019-01-27T15:07:01.659Z,24.57
2019-01-27T15:09:33.287Z,25.00
2019-01-27T15:12:03.936Z,24.23
2019-01-27T15:14:34.480Z,24.80
2019-01-27T15:17:05.301Z,24.90
2019-01-27T15:19:36.173Z,25.17
2019-01-27T15:22:07.606Z,24.37
2019-01-27T15:24:39.069Z,24.13
2019-01-27T15:27:11.113Z,24.13
2019-01-27T15:29:42.225Z,24.13
2019-01-27T15:32:13.090Z,25.23
2019-01-27T15:34:44.085Z,23.90
2019-01-27T15:37:16.298Z,23.13
2019-01-27T15:39:47.162Z,23.70
2019-01-27T15:42:18.583Z,22.77
2019-01-27T15:44:50.055Z,23.60
2019-01-27T15:47:21.221Z,22.70
2019-01-27T15:49:52.363Z,23.40
2019-01-27T15:52:23.461Z,23.17
2019-01-27T15:54:54.633Z,22.50
2019-01-27T15:57:25.712Z,22.57
2019-01-27T15:59:58.943Z,23.13
2019-01-27T16:02:30.188Z,22.33
2019-01-27T16:05:01.164Z,22.17
2019-01-27T16:07:32.178Z,23.00
2019-01-27T16:10:03.790Z,22.73
2019-01-27T16:12:35.091Z,21.93
2019-01-27T16:15:09.891Z,23.10
2019-01-27T16:17:41.349Z,22.17
2019-01-27T16:20:13.052Z,21.90
2019-01-27T16:22:49.387Z,22.37
2019-01-27T16:25:20.622Z,21.93
2019-01-27T16:27:51.785Z,21.90
2019-01-27T16:30:32.444Z,21.03
2019-01-27T16:33:08.509Z,22.20
2019-01-27T16:35:39.826Z,21.07
2019-01-27T16:38:11.439Z,21.53
2019-01-27T16:40:42.546Z,21.33
2019-01-27T16:43:13.691Z,21.90
2019-01-27T16:45:45.154Z,21.10
2019-01-27T16:48:16.425Z,19.63
2019-01-27T16:50:47.153Z,20.53
2019-01-27T16:53:19.864Z,20.63
2019-01-27T16:55:50.870Z,20.60
2019-01-27T16:58:21.541Z,21.00
2019-01-27T17:00:52.840Z,20.13
2019-01-27T17:03:23.550Z,20.53
2019-01-27T17:05:54.318Z,20.37
2019-01-27T17:08:25.220Z,20.20
2019-01-27T17:10:55.555Z,20.27
2019-01-27T17:13:26.271Z,20.47
2019-01-27T17:15:56.625Z,19.57
2019-01-27T17:18:27.880Z,20.30
2019-01-27T17:20:58.901Z,19.17
2019-01-27T17:23:29.932Z,20.03
2019-01-27T17:26:01.106Z,19.43
2019-01-27T17:28:33.010Z,19.77
2019-01-27T17:31:04.694Z,19.60
2019-01-27T17:33:36.206Z,19.60
2019-01-27T17:36:08.807Z,19.77
2019-01-27T17:38:41.007Z,19.23
2019-01-27T17:41:13.056Z,19.40
2019-01-27T17:43:43.362Z,18.83
2019-01-27T17:46:14.221Z,18.77
2019-01-27T17:48:44.877Z,19.17
2019-01-27T17:51:15.612Z,19.80
2019-01-27T17:53:51.173Z,17.83
2019-01-27T17:56:21.817Z,18.77
2019-01-27T17:59:29.903Z,18.50
2019-01-27T18:02:25.590Z,17.70
2019-01-27T18:05:08.302Z,17.70
2019-01-27T18:07:51.127Z,17.80
2019-01-27T18:10:45.771Z,17.47
2019-01-27T18:13:25.264Z,17.83
2019-01-27T18:15:55.939Z,18.00
2019-01-27T18:18:26.998Z,18.23
2019-01-27T18:20:59.995Z,17.43
2019-01-27T18:23:31.368Z,17.57
2019-01-27T18:26:01.583Z,17.40
2019-01-27T18:28:32.347Z,16.70
2019-01-27T18:31:03.054Z,17.07
2019-01-27T18:33:34.069Z,16.83
2019-01-27T18:36:04.740Z,17.67
2019-01-27T18:38:35.691Z,17.30
2019-01-27T18:41:06.901Z,16.67
2019-01-27T18:43:37.871Z,16.47
2019-01-27T18:46:08.469Z,16.60
2019-01-27T18:48:39.058Z,16.97
2019-01-27T18:51:09.411Z,16.80
2019-01-27T18:54:17.538Z,15.83
2019-01-27T18:57:06.595Z,15.67
2019-01-27T18:59:54.976Z,15.93
2019-01-27T19:02:40.915Z,15.33
2019-01-27T19:05:36.816Z,15.90
2019-01-27T19:08:21.348Z,16.23
2019-01-27T19:11:14.039Z,15.73
2019-01-27T19:13:52.063Z,15.63
2019-01-27T19:16:31.910Z,15.10
2019-01-27T19:19:21.254Z,14.60
2019-01-27T19:22:09.456Z,14.87
2019-01-27T19:25:01.395Z,14.67
2019-01-27T19:27:55.270Z,14.80
2019-01-27T19:30:47.152Z,14.87
2019-01-27T19:33:39.503Z,14.83
2019-01-27T19:36:18.333Z,14.63
2019-01-27T19:39:06.909Z,14.60
2019-01-27T19:41:46.778Z,14.80
2019-01-27T19:44:28.366Z,14.23
2019-01-27T19:47:17.632Z,14.20
2019-01-27T19:50:08.781Z,14.07
2019-01-27T19:52:59.555Z,14.27
2019-01-27T19:55:46.238Z,14.57
2019-01-27T19:58:26.694Z,13.47
2019-01-27T20:01:28.890Z,14.23
2019-01-27T20:04:15.281Z,14.40
2019-01-27T20:07:04.714Z,13.67
2019-01-27T20:09:45.734Z,14.47
2019-01-27T20:12:39.195Z,13.83
2019-01-27T20:15:34.203Z,13.80
2019-01-27T20:18:15.414Z,13.23
2019-01-27T20:20:59.139Z,14.03
2019-01-27T20:23:45.146Z,13.13
2019-01-27T20:26:35.508Z,13.20
2019-01-27T20:29:19.555Z,13.10
2019-01-27T20:32:11.849Z,13.37
2019-01-27T20:34:57.574Z,13.47
2019-01-27T20:37:56.419Z,13.30
2019-01-27T20:41:04.292Z,12.80
2019-01-27T20:44:00.470Z,12.77
2019-01-27T20:46:50.305Z,12.97
2019-01-27T20:49:38.978Z,13.23
2019-01-27T20:52:15.677Z,12.83
2019-01-27T20:55:05.275Z,12.60
2019-01-27T20:57:44.777Z,12.77
2019-01-27T21:00:35.197Z,13.00
2019-01-27T21:03:24.056Z,12.47
2019-01-27T21:06:03.152Z,12.27
2019-01-27T21:08:45.292Z,12.40
2019-01-27T21:11:33.730Z,12.60
2019-01-27T21:14:20.731Z,12.60
2019-01-27T21:17:09.113Z,12.03
2019-01-27T21:19:52.047Z,12.97
2019-01-27T21:22:24.103Z,12.47
2019-01-27T21:24:55.943Z,12.27
2019-01-27T21:27:27.507Z,11.73
2019-01-27T21:30:00.103Z,12.30
2019-01-27T21:32:31.649Z,12.23
2019-01-27T21:35:03.311Z,11.90
2019-01-27T21:37:35.775Z,12.30
2019-01-27T21:40:18.967Z,12.13
2019-01-27T21:42:50.365Z,12.30
2019-01-27T21:45:23.022Z,12.57
2019-01-27T21:47:54.399Z,11.80
2019-01-27T21:50:25.512Z,11.90
2019-01-27T21:52:56.786Z,12.37
2019-01-27T21:55:30.015Z,11.97
2019-01-27T21:58:01.425Z,11.87
2019-01-27T22:00:34.860Z,12.00
2019-01-27T22:03:06.058Z,11.83
2019-01-27T22:05:37.327Z,12.27
2019-01-27T22:08:09.375Z,11.90
2019-01-27T22:10:40.198Z,11.93
2019-01-27T22:13:11.809Z,11.40
2019-01-27T22:15:50.645Z,12.10
2019-01-27T22:18:19.874Z,11.63
2019-01-27T22:20:51.217Z,12.10
2019-01-27T22:23:21.578Z,11.20
2019-01-27T22:25:52.798Z,12.27
2019-01-27T22:28:23.118Z,11.27
2019-01-27T22:30:53.946Z,11.50
2019-01-27T22:33:24.907Z,11.50
2019-01-27T22:35:55.839Z,11.80
2019-01-27T22:38:26.351Z,11.60
2019-01-27T22:40:57.841Z,12.10
2019-01-27T22:43:28.529Z,11.80
2019-01-27T22:45:59.371Z,11.50
2019-01-27T22:48:29.877Z,12.00
2019-01-27T22:51:00.978Z,11.93
2019-01-27T22:53:31.567Z,11.70
2019-01-27T22:56:02.525Z,11.23
2019-01-27T22:58:32.759Z,11.57
2019-01-27T23:01:16.413Z,11.83
2019-01-27T23:03:50.638Z,11.43
2019-01-27T23:06:21.606Z,11.33
2019-01-27T23:08:52.250Z,11.37
2019-01-27T23:11:23.545Z,12.07
2019-01-27T23:13:53.830Z,11.47
2019-01-27T23:16:24.881Z,11.77
2019-01-27T23:18:55.585Z,11.87
2019-01-27T23:21:26.598Z,11.70
2019-01-27T23:23:56.914Z,12.20
2019-01-27T23:26:27.931Z,11.67
2019-01-27T23:28:58.256Z,11.63
2019-01-27T23:31:29.441Z,12.03
2019-01-27T23:34:01.011Z,11.43
2019-01-27T23:36:32.354Z,11.10
2019-01-27T23:39:02.685Z,11.73
2019-01-27T23:41:34.882Z,11.33
2019-01-27T23:44:05.290Z,11.67
2019-01-27T23:46:38.886Z,11.67
2019-01-27T23:49:12.305Z,11.87
2019-01-27T23:51:44.220Z,11.30
2019-01-27T23:54:14.724Z,11.30
2019-01-27T23:56:45.939Z,11.23
2019-01-27T23:59:16.246Z,11.73
